createdAt,value
2022-12-05T00:01:35.075Z,12.57
2022-12-05T00:04:04.971Z,12.67
2022-12-05T00:06:35.742Z,12.23
2022-12-05T00:09:04.103Z,12.90
2022-12-05T00:11:35.178Z,12.23
2022-12-05T00:14:06.682Z,11.97
2022-12-05T00:16:36.557Z,10.70
2022-12-05T00:19:05.531Z,11.20
2022-12-05T00:21:36.894Z,11.20
2022-12-05T00:24:06.966Z,11.03
2022-12-05T00:26:35.566Z,11.70
2022-12-05T00:29:03.406Z,11.27
2022-12-05T00:31:31.268Z,11.53
2022-12-05T00:34:01.351Z,12.23
2022-12-05T00:36:30.870Z,10.90
2022-12-05T00:39:02.724Z,11.27
2022-12-05T00:41:30.584Z,10.67
2022-12-05T00:44:00.482Z,11.77
2022-12-05T00:46:30.386Z,12.10
2022-12-05T00:48:59.739Z,11.40
2022-12-05T00:51:29.538Z,11.97
2022-12-05T00:54:00.593Z,12.10
2022-12-05T00:56:31.258Z,12.47
2022-12-05T00:59:00.277Z,11.73
2022-12-05T01:01:30.426Z,11.93
2022-12-05T01:03:59.382Z,12.77
2022-12-05T01:06:28.769Z,11.73
2022-12-05T01:08:57.899Z,11.83
2022-12-05T01:11:26.979Z,11.73
2022-12-05T01:13:57.489Z,11.50
2022-12-05T01:16:27.270Z,12.73
2022-12-05T01:18:55.460Z,12.00
2022-12-05T01:21:23.424Z,12.80
2022-12-05T01:23:51.272Z,12.87
2022-12-05T01:26:21.590Z,13.53
2022-12-05T01:28:52.125Z,12.67
2022-12-05T01:31:24.977Z,12.03
2022-12-05T01:33:54.346Z,13.17
2022-12-05T01:36:22.736Z,13.93
2022-12-05T01:38:51.202Z,12.80
2022-12-05T01:41:21.189Z,13.27
2022-12-05T01:44:01.129Z,12.97
2022-12-05T01:46:33.080Z,13.17
2022-12-05T01:49:06.134Z,13.43
2022-12-05T01:51:35.431Z,12.77
2022-12-05T01:54:04.743Z,12.67
2022-12-05T01:56:33.991Z,13.93
2022-12-05T01:59:04.315Z,13.47
2022-12-05T02:01:33.826Z,14.33
2022-12-05T02:04:01.807Z,13.87
2022-12-05T02:06:30.199Z,13.67
2022-12-05T02:08:58.035Z,12.73
2022-12-05T02:11:30.029Z,13.93
2022-12-05T02:14:16.760Z,14.17
2022-12-05T02:16:54.236Z,14.03
2022-12-05T02:19:51.231Z,14.67
2022-12-05T02:22:38.394Z,14.40
2022-12-05T02:25:38.157Z,13.60
2022-12-05T02:28:45.622Z,14.17
2022-12-05T02:31:19.822Z,13.57
2022-12-05T02:33:51.608Z,14.30
2022-12-05T02:36:24.221Z,14.43
2022-12-05T02:39:00.488Z,15.57
2022-12-05T02:41:33.598Z,15.03
2022-12-05T02:44:05.641Z,14.10
2022-12-05T02:46:39.038Z,14.17
2022-12-05T02:49:11.734Z,13.40
2022-12-05T02:51:43.957Z,13.97
2022-12-05T02:54:16.102Z,14.07
2022-12-05T02:56:47.577Z,14.00
2022-12-05T02:59:21.525Z,14.13
2022-12-05T03:01:52.939Z,13.37
2022-12-05T03:04:23.441Z,14.60
2022-12-05T03:06:54.721Z,14.87
2022-12-05T03:09:26.092Z,14.70
2022-12-05T03:11:57.903Z,14.43
2022-12-05T03:14:29.945Z,14.10
2022-12-05T03:17:03.746Z,12.87
2022-12-05T03:19:37.588Z,13.10
2022-12-05T03:22:09.928Z,13.80
2022-12-05T03:24:41.605Z,13.83
2022-12-05T03:27:17.546Z,13.47
2022-12-05T03:29:51.058Z,13.87
2022-12-05T03:32:23.818Z,13.47
2022-12-05T03:35:01.229Z,13.63
2022-12-05T03:37:36.152Z,13.37
2022-12-05T03:40:10.382Z,13.07
2022-12-05T03:42:41.511Z,13.67
2022-12-05T03:45:12.855Z,13.57
2022-12-05T03:47:49.393Z,14.77
2022-12-05T03:50:23.417Z,14.27
2022-12-05T03:53:19.021Z,13.07
2022-12-05T03:55:50.216Z,12.53
2022-12-05T03:58:25.754Z,14.60
2022-12-05T04:00:57.511Z,11.10
2022-12-05T04:03:39.395Z,11.90
2022-12-05T04:06:15.009Z,10.90
2022-12-05T04:08:48.240Z,11.97
2022-12-05T04:11:19.750Z,10.63
2022-12-05T04:13:51.022Z,11.30
2022-12-05T04:16:44.894Z,11.07
2022-12-05T04:19:20.315Z,11.00
2022-12-05T04:21:52.182Z,11.23
2022-12-05T04:24:41.523Z,11.23
2022-12-05T04:27:24.055Z,11.33
2022-12-05T04:29:58.277Z,10.23
2022-12-05T04:32:31.752Z,11.30
2022-12-05T04:35:08.175Z,11.17
2022-12-05T04:37:41.503Z,11.43
2022-12-05T04:40:16.046Z,11.90
2022-12-05T04:42:45.069Z,11.37
2022-12-05T04:45:16.791Z,11.93
2022-12-05T04:47:52.276Z,11.70
2022-12-05T04:50:24.175Z,11.30
2022-12-05T04:52:55.288Z,11.90
2022-12-05T04:55:26.756Z,11.70
2022-12-05T04:58:02.938Z,11.20
2022-12-05T05:00:32.574Z,12.20
2022-12-05T05:03:06.743Z,11.77
2022-12-05T05:05:36.983Z,11.87
2022-12-05T05:08:05.098Z,11.60
2022-12-05T05:10:37.730Z,12.23
2022-12-05T05:13:05.488Z,12.00
2022-12-05T05:15:33.263Z,11.90
2022-12-05T05:18:01.115Z,11.47
2022-12-05T05:20:28.892Z,11.10
2022-12-05T05:22:59.496Z,11.30
2022-12-05T05:25:27.299Z,12.00
2022-12-05T05:27:56.723Z,11.30
2022-12-05T05:30:26.465Z,12.00
2022-12-05T05:32:54.766Z,11.80
2022-12-05T05:35:22.836Z,11.47
2022-12-05T05:37:50.646Z,12.23
2022-12-05T05:40:20.359Z,12.83
2022-12-05T05:42:49.977Z,12.23
2022-12-05T05:45:18.401Z,11.63
2022-12-05T05:47:46.576Z,12.50
2022-12-05T05:50:20.877Z,12.83
2022-12-05T05:52:49.385Z,11.63
2022-12-05T05:55:17.326Z,12.57
2022-12-05T05:57:46.419Z,12.87
2022-12-05T06:00:15.859Z,13.13
2022-12-05T06:02:43.959Z,12.37
2022-12-05T06:05:11.919Z,12.53
2022-12-05T06:07:39.792Z,13.30
2022-12-05T06:10:08.826Z,12.40
2022-12-05T06:12:36.649Z,11.80
2022-12-05T06:15:07.105Z,12.93
2022-12-05T06:17:34.840Z,12.23
2022-12-05T06:20:02.810Z,12.30
2022-12-05T06:22:30.826Z,11.70
2022-12-05T06:24:59.600Z,12.13
2022-12-05T06:27:27.569Z,11.17
2022-12-05T06:29:55.651Z,12.07
2022-12-05T06:32:25.180Z,12.20
2022-12-05T06:34:52.968Z,11.13
2022-12-05T06:37:20.826Z,11.37
2022-12-05T06:39:48.664Z,10.50
2022-12-05T06:42:19.188Z,10.53
2022-12-05T06:44:46.953Z,11.17
2022-12-05T06:47:14.727Z,10.70
2022-12-05T06:49:43.838Z,10.67
2022-12-05T06:52:11.614Z,10.83
2022-12-05T06:54:39.355Z,10.87
2022-12-05T06:57:07.209Z,11.23
2022-12-05T06:59:34.990Z,11.27
2022-12-05T07:02:01.844Z,10.83
2022-12-05T07:04:29.649Z,11.20
2022-12-05T07:06:58.776Z,11.30
2022-12-05T07:09:46.118Z,10.80
2022-12-05T07:12:14.923Z,10.83
2022-12-05T07:14:48.078Z,11.23
2022-12-05T07:17:17.087Z,10.53
2022-12-05T07:19:45.032Z,11.27
2022-12-05T07:22:16.236Z,10.57
2022-12-05T07:24:44.767Z,10.90
2022-12-05T07:27:12.827Z,11.17
2022-12-05T07:29:40.729Z,10.60
2022-12-05T07:32:09.273Z,10.60
2022-12-05T07:34:38.701Z,10.73
2022-12-05T07:37:06.731Z,11.10
2022-12-05T07:39:35.911Z,11.40
2022-12-05T07:42:03.795Z,11.23
2022-12-05T07:44:31.993Z,12.27
2022-12-05T07:46:59.887Z,11.97
2022-12-05T07:49:27.788Z,11.63
2022-12-05T07:51:55.553Z,11.43
2022-12-05T07:54:23.527Z,11.57
2022-12-05T07:56:52.702Z,11.13
2022-12-05T07:59:20.520Z,11.50
2022-12-05T08:01:48.501Z,11.17
2022-12-05T08:04:16.382Z,11.37
2022-12-05T08:06:44.568Z,11.63
2022-12-05T08:09:12.722Z,11.13
2022-12-05T08:11:40.516Z,10.87
2022-12-05T08:14:10.987Z,10.63
2022-12-05T08:16:38.914Z,10.83
2022-12-05T08:19:08.396Z,10.77
2022-12-05T08:21:36.571Z,11.27
2022-12-05T08:24:05.848Z,10.70
2022-12-05T08:26:34.814Z,12.00
2022-12-05T08:29:04.994Z,9.33
2022-12-05T08:31:36.364Z,9.40
2022-12-05T08:34:04.180Z,9.73
2022-12-05T08:36:32.410Z,8.73
2022-12-05T08:39:02.150Z,9.23
2022-12-05T08:41:30.506Z,8.97
2022-12-05T08:43:59.052Z,9.50
2022-12-05T08:46:27.039Z,9.47
2022-12-05T08:48:56.374Z,9.57
2022-12-05T08:51:24.169Z,8.77
2022-12-05T08:53:52.074Z,8.90
2022-12-05T08:56:25.044Z,8.27
2022-12-05T08:58:57.350Z,9.23
2022-12-05T09:01:31.889Z,9.13
2022-12-05T09:04:02.437Z,8.60
2022-12-05T09:06:30.841Z,8.43
2022-12-05T09:09:00.439Z,9.60
2022-12-05T09:11:30.397Z,10.33
2022-12-05T09:14:00.127Z,10.03
2022-12-05T09:16:36.536Z,10.00
2022-12-05T09:19:13.315Z,9.87
2022-12-05T09:21:41.515Z,10.23
2022-12-05T09:24:10.767Z,10.13
2022-12-05T09:26:39.955Z,10.90
2022-12-05T09:29:11.320Z,10.23
2022-12-05T09:31:43.864Z,10.80
2022-12-05T09:34:14.111Z,10.00
2022-12-05T09:36:42.273Z,10.53
2022-12-05T09:39:11.578Z,10.40
2022-12-05T09:42:08.307Z,10.27
2022-12-05T09:44:44.027Z,11.23
2022-12-05T09:47:30.735Z,10.87
2022-12-05T09:50:03.674Z,10.37
2022-12-05T09:52:34.580Z,10.33
2022-12-05T09:55:06.270Z,10.37
2022-12-05T09:57:38.232Z,10.60
2022-12-05T10:00:10.777Z,10.43
2022-12-05T10:02:48.794Z,10.87
2022-12-05T10:05:24.030Z,10.83
2022-12-05T10:08:00.621Z,10.30
2022-12-05T10:10:41.287Z,10.40
2022-12-05T10:13:21.847Z,9.77
2022-12-05T10:15:57.275Z,10.20
2022-12-05T10:18:33.536Z,10.40
2022-12-05T10:21:06.917Z,9.50
2022-12-05T10:24:00.521Z,9.47
2022-12-05T10:26:33.568Z,10.37
2022-12-05T10:29:08.296Z,10.17
2022-12-05T10:31:40.241Z,9.53
2022-12-05T10:34:16.464Z,9.70
2022-12-05T10:36:56.433Z,10.73
2022-12-05T10:39:24.557Z,10.50
2022-12-05T10:41:52.545Z,10.53
2022-12-05T10:44:20.909Z,9.77
2022-12-05T10:46:49.507Z,10.43
2022-12-05T10:49:17.469Z,9.90
2022-12-05T10:51:47.208Z,10.17
2022-12-05T10:54:20.271Z,10.50
2022-12-05T10:56:49.415Z,10.30
2022-12-05T10:59:19.213Z,10.03
2022-12-05T11:01:50.951Z,10.23
2022-12-05T11:04:27.193Z,9.97
2022-12-05T11:07:02.197Z,10.83
2022-12-05T11:09:32.355Z,10.67
2022-12-05T11:12:20.800Z,10.70
2022-12-05T11:15:01.307Z,10.80
2022-12-05T11:17:33.700Z,10.40
2022-12-05T11:20:01.778Z,10.00
2022-12-05T11:22:36.310Z,10.60
2022-12-05T11:25:25.539Z,11.00
2022-12-05T11:27:58.275Z,11.03
2022-12-05T11:30:30.248Z,10.10
2022-12-05T11:33:13.037Z,10.20
2022-12-05T11:35:41.826Z,10.73
2022-12-05T11:38:13.635Z,10.23
2022-12-05T11:40:53.105Z,9.90
2022-12-05T11:43:51.867Z,9.47
2022-12-05T11:46:31.970Z,8.97
2022-12-05T11:49:12.371Z,9.50
2022-12-05T11:51:43.397Z,9.23
2022-12-05T11:55:03.901Z,9.37
2022-12-05T11:57:35.673Z,9.10
2022-12-05T12:00:18.886Z,8.57
2022-12-05T12:03:21.894Z,8.90
2022-12-05T12:05:57.548Z,8.10
2022-12-05T12:08:28.634Z,7.77
2022-12-05T12:11:08.051Z,7.90
2022-12-05T12:13:53.413Z,7.70
2022-12-05T12:16:34.214Z,7.70
2022-12-05T12:19:18.772Z,8.30
2022-12-05T12:22:02.088Z,8.17
2022-12-05T12:24:39.698Z,8.40
2022-12-05T12:27:21.158Z,7.53
2022-12-05T12:30:03.318Z,6.77
2022-12-05T12:32:40.676Z,7.27
2022-12-05T12:35:31.955Z,7.37
2022-12-05T12:38:18.754Z,7.00
2022-12-05T12:40:50.877Z,7.63
2022-12-05T12:46:34.935Z,6.83
2022-12-05T12:49:19.518Z,6.83
2022-12-05T12:51:53.834Z,6.40
2022-12-05T12:57:43.505Z,6.83
2022-12-05T13:00:23.318Z,6.77
2022-12-05T13:02:57.871Z,6.57
2022-12-05T13:05:35.697Z,5.73
2022-12-05T13:08:08.195Z,5.90
2022-12-05T13:10:40.658Z,5.93
2022-12-05T13:13:14.549Z,4.43
2022-12-05T13:15:47.863Z,4.93
2022-12-05T13:18:18.676Z,4.97
2022-12-05T13:20:49.097Z,4.27
2022-12-05T13:23:20.605Z,3.73
2022-12-05T13:25:50.355Z,3.60
2022-12-05T13:28:26.539Z,3.77
2022-12-05T13:31:01.266Z,3.70
2022-12-05T13:33:33.292Z,3.43
2022-12-05T13:36:25.564Z,3.90
2022-12-05T13:39:16.580Z,3.87
2022-12-05T13:42:04.407Z,3.80
2022-12-05T13:44:36.400Z,4.23
2022-12-05T13:47:07.595Z,4.10
2022-12-05T13:49:46.441Z,4.10
2022-12-05T13:52:20.995Z,4.23
2022-12-05T13:54:55.705Z,4.00
2022-12-05T13:57:50.361Z,4.20
2022-12-05T14:00:27.674Z,4.80
2022-12-05T14:02:59.357Z,4.63
2022-12-05T14:05:41.928Z,4.27
2022-12-05T14:08:46.263Z,4.70
2022-12-05T14:11:14.191Z,4.90
2022-12-05T14:13:45.097Z,5.00
2022-12-05T14:16:45.176Z,4.30
2022-12-05T14:19:55.312Z,5.13
2022-12-05T14:22:42.271Z,5.13
2022-12-05T14:25:23.868Z,4.50
2022-12-05T14:28:01.266Z,4.47
2022-12-05T14:30:41.785Z,4.20
2022-12-05T14:33:16.477Z,4.27
2022-12-05T14:35:50.749Z,4.43
2022-12-05T14:38:27.958Z,4.10
2022-12-05T14:41:06.196Z,4.40
2022-12-05T14:43:35.960Z,4.40
2022-12-05T14:46:07.988Z,4.27
2022-12-05T14:48:47.113Z,4.00
2022-12-05T14:51:56.674Z,4.23
2022-12-05T14:54:25.807Z,3.53
2022-12-05T14:57:04.221Z,3.67
2022-12-05T14:59:35.525Z,4.37
2022-12-05T15:02:05.010Z,4.10
2022-12-05T15:04:39.940Z,5.10
2022-12-05T15:07:13.318Z,4.73
2022-12-05T15:09:57.587Z,4.63
2022-12-05T15:12:29.102Z,4.63
2022-12-05T15:15:14.565Z,4.63
2022-12-05T15:17:47.475Z,5.23
2022-12-05T15:20:25.632Z,4.60
2022-12-05T15:22:55.174Z,4.57
2022-12-05T15:25:33.183Z,4.90
2022-12-05T15:28:05.035Z,5.17
2022-12-05T15:30:37.599Z,4.73
2022-12-05T15:33:06.236Z,4.80
2022-12-05T15:35:35.429Z,4.80
2022-12-05T15:38:13.641Z,4.17
2022-12-05T15:40:47.643Z,3.70
2022-12-05T15:43:30.444Z,3.77
2022-12-05T15:46:23.842Z,3.83
2022-12-05T15:48:54.315Z,4.50
2022-12-05T15:51:25.767Z,4.10
2022-12-05T15:53:59.833Z,4.47
2022-12-05T15:56:31.930Z,4.20
2022-12-05T15:59:05.665Z,4.03
2022-12-05T16:01:40.676Z,3.87
2022-12-05T16:04:22.586Z,4.47
2022-12-05T16:06:56.163Z,4.10
2022-12-05T16:09:29.594Z,4.20
2022-12-05T16:12:00.426Z,4.17
2022-12-05T16:17:21.981Z,4.33
2022-12-05T16:19:50.685Z,4.00
2022-12-05T16:22:23.430Z,4.20
2022-12-05T16:25:02.147Z,3.67
2022-12-05T16:27:32.791Z,7.80
2022-12-05T16:30:18.057Z,6.33
2022-12-05T16:32:47.746Z,3.30
2022-12-05T16:35:30.842Z,3.10
2022-12-05T16:38:15.103Z,3.13
2022-12-05T16:40:55.193Z,2.90
2022-12-05T16:43:44.583Z,2.70
2022-12-05T16:46:45.637Z,3.07
2022-12-05T16:49:20.249Z,2.53
2022-12-05T16:51:57.115Z,2.50
2022-12-05T16:54:25.037Z,2.70
2022-12-05T16:56:54.633Z,2.27
2022-12-05T16:59:27.841Z,2.33
2022-12-05T17:02:04.111Z,2.40
2022-12-05T17:04:32.496Z,2.40
2022-12-05T17:07:00.659Z,2.40
2022-12-05T17:09:28.651Z,2.50
2022-12-05T17:12:04.623Z,2.40
2022-12-05T17:14:32.482Z,2.80
2022-12-05T17:17:03.050Z,3.33
2022-12-05T17:19:30.883Z,2.57
2022-12-05T17:21:58.765Z,2.70
2022-12-05T17:24:28.442Z,2.70
2022-12-05T17:26:57.597Z,2.73
2022-12-05T17:29:25.540Z,3.20
2022-12-05T17:31:55.166Z,3.40
2022-12-05T17:34:23.184Z,2.80
2022-12-05T17:36:51.084Z,2.83
2022-12-05T17:39:22.442Z,3.10
2022-12-05T17:41:54.619Z,2.67
2022-12-05T17:44:24.518Z,2.93
2022-12-05T17:46:55.251Z,3.30
2022-12-05T17:49:23.229Z,3.60
2022-12-05T17:52:20.425Z,3.23
2022-12-05T17:54:41.768Z,3.57
2022-12-05T17:57:09.680Z,3.90
2022-12-05T17:59:39.149Z,3.43
2022-12-05T18:02:07.117Z,3.50
2022-12-05T18:04:35.184Z,3.90
2022-12-05T18:07:03.162Z,3.90
2022-12-05T18:09:31.061Z,3.27
2022-12-05T18:11:58.936Z,3.50
2022-12-05T18:14:28.325Z,4.10
2022-12-05T18:16:57.977Z,4.27
2022-12-05T18:19:25.872Z,4.37
2022-12-05T18:21:53.701Z,3.63
2022-12-05T18:24:21.701Z,3.60
2022-12-05T18:26:49.625Z,4.20
2022-12-05T18:29:17.646Z,3.70
2022-12-05T18:31:45.687Z,3.90
2022-12-05T18:34:15.208Z,3.77
2022-12-05T18:36:43.190Z,3.97
2022-12-05T18:39:14.554Z,3.83
2022-12-05T18:41:42.781Z,3.80
2022-12-05T18:44:10.958Z,4.40
2022-12-05T18:46:38.818Z,3.60
2022-12-05T18:49:07.928Z,4.10
2022-12-05T18:51:39.499Z,3.67
2022-12-05T18:54:07.660Z,3.70
2022-12-05T18:56:36.804Z,3.60
2022-12-05T18:59:06.444Z,3.67
2022-12-05T19:01:36.302Z,3.50
2022-12-05T19:04:06.233Z,3.67
2022-12-05T19:06:36.215Z,3.67
2022-12-05T19:09:07.614Z,3.73
2022-12-05T19:11:35.634Z,4.03
2022-12-05T19:14:05.353Z,3.30
2022-12-05T19:16:35.744Z,3.20
2022-12-05T19:19:05.589Z,3.07
2022-12-05T19:21:34.859Z,2.50
2022-12-05T19:24:04.214Z,3.00
2022-12-05T19:26:34.335Z,2.90
2022-12-05T19:29:02.370Z,2.70
2022-12-05T19:31:31.620Z,2.70
2022-12-05T19:34:01.301Z,2.53
2022-12-05T19:36:32.690Z,2.53
2022-12-05T19:39:00.773Z,2.63
2022-12-05T19:41:30.441Z,2.63
2022-12-05T19:44:01.573Z,2.90
2022-12-05T19:46:32.976Z,2.30
2022-12-05T19:49:03.561Z,2.33
2022-12-05T19:51:32.090Z,2.57
2022-12-05T19:54:01.038Z,2.53
2022-12-05T19:56:30.618Z,2.83
2022-12-05T19:59:04.000Z,2.53
2022-12-05T20:01:33.452Z,2.60
2022-12-05T20:04:02.753Z,2.90
2022-12-05T20:06:32.640Z,2.57
2022-12-05T20:09:01.498Z,2.50
2022-12-05T20:11:30.122Z,2.63
2022-12-05T20:13:59.890Z,7.83
2022-12-05T20:16:30.552Z,3.73
2022-12-05T20:18:59.753Z,4.20
2022-12-05T20:21:30.218Z,4.83
2022-12-05T20:24:00.700Z,4.93
2022-12-05T20:26:30.944Z,3.73
2022-12-05T20:29:01.751Z,3.47
2022-12-05T20:31:32.780Z,3.90
2022-12-05T20:34:00.678Z,3.30
2022-12-05T20:36:30.395Z,3.43
2022-12-05T20:38:59.365Z,3.87
2022-12-05T20:41:27.812Z,3.47
2022-12-05T20:43:57.386Z,3.27
2022-12-05T20:46:25.880Z,3.67
2022-12-05T20:48:56.372Z,3.93
2022-12-05T20:51:27.157Z,3.50
2022-12-05T20:53:55.300Z,3.50
2022-12-05T20:56:26.002Z,3.80
2022-12-05T20:58:56.322Z,3.70
2022-12-05T21:01:25.907Z,3.60
2022-12-05T21:03:55.446Z,3.50
2022-12-05T21:06:25.800Z,3.80
2022-12-05T21:08:54.684Z,4.10
2022-12-05T21:11:23.322Z,3.57
2022-12-05T21:13:51.247Z,3.50
2022-12-05T21:16:21.332Z,3.90
2022-12-05T21:18:49.652Z,3.47
2022-12-05T21:21:20.825Z,3.30
2022-12-05T21:23:53.547Z,3.50
2022-12-05T21:26:22.956Z,3.37
2022-12-05T21:28:51.306Z,3.30
2022-12-05T21:31:21.635Z,3.47
2022-12-05T21:33:52.382Z,3.43
2022-12-05T21:36:22.551Z,3.40
2022-12-05T21:38:55.879Z,3.47
2022-12-05T21:41:24.204Z,3.10
2022-12-05T21:43:55.066Z,3.50
2022-12-05T21:46:23.694Z,3.23
2022-12-05T21:48:51.563Z,3.50
2022-12-05T21:51:20.783Z,3.30
2022-12-05T21:54:02.103Z,3.30
2022-12-05T21:56:30.534Z,3.10
2022-12-05T21:58:58.379Z,3.30
2022-12-05T22:01:28.127Z,3.43
2022-12-05T22:03:59.239Z,3.37
2022-12-05T22:06:27.135Z,3.30
2022-12-05T22:08:57.172Z,3.80
2022-12-05T22:11:25.313Z,3.30
2022-12-05T22:13:53.749Z,3.40
2022-12-05T22:16:22.060Z,3.53
2022-12-05T22:18:50.636Z,3.40
2022-12-05T22:21:20.157Z,3.63
2022-12-05T22:23:49.137Z,3.50
2022-12-05T22:26:20.364Z,3.80
2022-12-05T22:28:48.172Z,3.70
2022-12-05T22:31:17.465Z,3.77
2022-12-05T22:33:46.376Z,3.30
2022-12-05T22:36:15.747Z,3.47
2022-12-05T22:38:45.047Z,3.70
2022-12-05T22:41:15.406Z,3.53
2022-12-05T22:43:47.069Z,3.53
2022-12-05T22:46:17.482Z,3.77
2022-12-05T22:48:46.119Z,3.83
2022-12-05T22:51:14.986Z,3.80
2022-12-05T22:53:43.364Z,3.47
2022-12-05T22:56:13.168Z,3.63
2022-12-05T22:58:41.640Z,3.70
2022-12-05T23:01:12.751Z,3.93
2022-12-05T23:03:41.249Z,4.00
2022-12-05T23:06:12.093Z,4.30
2022-12-05T23:08:40.987Z,4.17
2022-12-05T23:11:17.066Z,4.10
2022-12-05T23:13:45.417Z,4.60
2022-12-05T23:16:16.758Z,4.07
2022-12-05T23:18:47.993Z,4.37
2022-12-05T23:21:20.561Z,4.23
2022-12-05T23:23:49.098Z,4.07
2022-12-05T23:26:18.322Z,3.90
2022-12-05T23:28:46.094Z,3.90
2022-12-05T23:31:16.042Z,3.80
2022-12-05T23:33:44.328Z,4.50
2022-12-05T23:36:12.887Z,4.33
2022-12-05T23:38:42.428Z,4.73
2022-12-05T23:41:13.087Z,4.30
2022-12-05T23:43:41.378Z,4.17
2022-12-05T23:46:10.725Z,4.37
2022-12-05T23:48:40.193Z,4.40
2022-12-05T23:51:10.278Z,4.13
2022-12-05T23:53:39.878Z,4.00
2022-12-05T23:56:10.339Z,4.47
2022-12-05T23:58:38.702Z,4.00
